EGXW

Details ICAO EGXW (WTN)
Name RAF Waddington
Region United Kingdom
Timezone Europe/London (UTC+0.0)
Plans Departing 18
Arriving 7
Stats Elevation 231 ft / 70 m (AMSL)
Location 53.166112° -0.523906°
Runways 1
Magnetic Variation 0.782° W
Sunrise 2017-12-12 08:08:45 UTC / 2017-12-12 08:08:45 Local
Sunset 2017-12-12 15:45:46 UTC / 2017-12-12 15:45:46 Local
Advertisement - Login to hide

Runways

ID Width Length Bearing (true) Bearing (mag) Surface Threshold Offset Overrun Length
02 200 ft / 61 m 8,988 ft / 2,740 m 21.63° 22.41° Asphalt 0 ft / 0 m 600 ft / 183 m
20 200 ft / 61 m 8,988 ft / 2,740 m 201.64° 202.42° Asphalt 0 ft / 0 m 0 ft / 0 m

Approach Navaids

Runway Type Ident Frequency Range Bearing (true) Bearing (mag) Slope Elevation
20 Localiser WA 110.50 MHz 18 nm / 33 km 204.46° 205.24° - 231 ft / 70 m (AMSL)
20 Glidescope WA 110.50 MHz 10 nm / 19 km 201.64° 202.42° 3.00° 231 ft / 70 m (AMSL)

Map

Weather


0- 5 10 15 20 25 30 35+ Temperature / ° C

Clouds and Precipitation
Forecast for 2017-12-12 00:00 UTC. Updated 2 hours ago

Ground ~20,000 ft ~40,000 ft Winds

METAR

EGXW 120050Z 30009KT CAVOK M01/M02 Q0998 BLU

TAF

TAF EGXW 111905Z 1121/1215 31008KT CAVOK PROB30 1210/1215 5000 BR

Frequencies

Ground 123.30 MHz Waddington Departure
Tower 125.35 MHz Waddington Tower
Warning: Do not use this data for real-world aviation or navigation. No guarantee of current accuracy is given.